Time;durP1;ratioP1;P1;durP2;ratioP2;P2;SDS_P1;SDS_P2;PMS_P1;PMS_P2;Temp;Humidity;BMP_temperature;BMP_pressure;BME280_temperature;BME280_humidity;BME280_pressure;Samples;Min_cycle;Max_cycle;Signal;HPM_P1;HPM_P2
2021/06/10 00:00:21;;;;;;;7.93;6.50;;;;;;;17.01;69.37;99805.16;5027724;28;20018;-24
2021/06/10 00:02:47;;;;;;;9.52;6.65;;;;;;;17.09;69.46;99801.94;5027825;28;20036;-24
2021/06/10 00:05:13;;;;;;;9.70;7.18;;;;;;;17.29;69.01;99808.41;5029149;28;20029;-24
2021/06/10 00:07:39;;;;;;;9.55;6.68;;;;;;;17.38;68.99;99802.19;5029332;28;20500;-24
2021/06/10 00:10:09;;;;;;;10.32;6.80;;;;;;;17.39;68.90;99801.13;5029000;28;20118;-24
2021/06/10 00:12:35;;;;;;;11.40;6.40;;;;;;;17.90;66.87;99792.19;5028625;28;20895;-23
2021/06/10 00:15:00;;;;;;;11.13;7.00;;;;;;;18.32;64.58;99806.34;5028763;28;20112;-24
2021/06/10 00:17:26;;;;;;;9.85;6.47;;;;;;;17.83;65.84;99788.94;5028670;28;20103;-24
2021/06/10 00:19:51;;;;;;;9.70;6.05;;;;;;;17.88;65.30;99783.56;5029033;28;20112;-24
2021/06/10 00:22:19;;;;;;;9.95;6.70;;;;;;;17.59;66.54;99789.53;5028677;28;20072;-24
2021/06/10 00:24:45;;;;;;;9.73;5.95;;;;;;;17.41;67.13;99800.88;5028955;28;20033;-24
2021/06/10 00:27:11;;;;;;;8.90;6.00;;;;;;;17.71;66.05;99796.50;5028567;28;20025;-24
2021/06/10 00:29:36;;;;;;;7.20;6.00;;;;;;;17.55;66.77;99791.16;5028716;28;20036;-24
2021/06/10 00:32:02;;;;;;;6.88;5.50;;;;;;;16.70;69.16;99794.28;5028437;28;20029;-24
2021/06/10 00:34:27;;;;;;;7.20;5.75;;;;;;;16.35;69.16;99792.31;5028480;28;20028;-24
2021/06/10 00:36:53;;;;;;;7.47;5.53;;;;;;;16.24;69.95;99794.13;5028456;28;20057;-24
2021/06/10 00:39:18;;;;;;;6.75;5.15;;;;;;;16.00;70.36;99774.97;5028504;28;20032;-24
2021/06/10 00:41:44;;;;;;;9.27;6.13;;;;;;;16.55;69.35;99803.16;5028306;28;20459;-24
2021/06/10 00:44:10;;;;;;;7.57;6.45;;;;;;;16.54;69.12;99781.88;5028478;28;20674;-24
2021/06/10 00:46:35;;;;;;;9.23;5.90;;;;;;;16.43;69.58;99789.13;5028828;28;20157;-24
2021/06/10 00:49:01;;;;;;;10.13;6.22;;;;;;;16.33;70.20;99795.25;5028624;28;20069;-24
2021/06/10 00:51:27;;;;;;;9.38;5.97;;;;;;;16.09;70.33;99786.00;5026872;28;20041;-24
2021/06/10 00:53:52;;;;;;;9.45;6.35;;;;;;;16.12;70.45;99782.78;5026896;28;20057;-24
2021/06/10 00:56:18;;;;;;;11.00;6.35;;;;;;;16.19;69.62;99762.66;5027935;28;20067;-24
2021/06/10 00:58:43;;;;;;;11.35;6.70;;;;;;;16.47;69.17;99790.22;5028066;28;20033;-24
2021/06/10 01:01:09;;;;;;;10.52;6.28;;;;;;;16.18;69.78;99779.88;5028032;28;20106;-24
2021/06/10 01:03:35;;;;;;;14.52;7.20;;;;;;;15.97;70.57;99770.88;5027863;28;20029;-24
2021/06/10 01:06:06;;;;;;;12.98;6.75;;;;;;;16.68;68.42;99782.97;5028113;28;20049;-24
2021/06/10 01:09:02;;;;;;;10.15;6.70;;;;;;;17.39;65.74;99786.84;5026760;28;20120;-24
2021/06/10 01:11:38;;;;;;;11.85;6.63;;;;;;;17.30;66.00;99774.97;5028112;28;20132;-32
2021/06/10 01:14:05;;;;;;;12.35;7.28;;;;;;;17.07;66.79;99775.25;5026623;28;20391;-24
2021/06/10 01:16:33;;;;;;;12.23;7.45;;;;;;;17.46;64.68;99773.88;5027607;28;20026;-24
2021/06/10 01:19:01;;;;;;;10.35;6.85;;;;;;;17.58;63.86;99768.22;5026572;28;20029;-24
2021/06/10 01:21:27;;;;;;;12.77;6.60;;;;;;;16.81;67.30;99773.59;5010091;28;20037;-24
2021/06/10 01:24:00;;;;;;;14.23;6.53;;;;;;;17.18;66.07;99769.84;5026203;28;20030;-24
2021/06/10 01:26:54;;;;;;;12.23;7.18;;;;;;;17.25;65.59;99762.31;5027817;28;20057;-24
2021/06/10 01:29:19;;;;;;;12.07;7.22;;;;;;;16.27;68.82;99758.66;5027675;28;20403;-24
2021/06/10 01:31:45;;;;;;;12.73;7.32;;;;;;;16.25;69.42;99766.19;5010323;28;20032;-24
2021/06/10 01:34:10;;;;;;;10.05;7.03;;;;;;;16.62;67.90;99762.50;5026099;28;20908;-24
2021/06/10 01:36:43;;;;;;;11.68;6.88;;;;;;;16.72;67.50;99754.44;5026024;28;20458;-24
2021/06/10 01:39:11;;;;;;;14.95;7.40;;;;;;;16.59;67.88;99741.50;5026450;28;20075;-25
2021/06/10 01:41:36;;;;;;;20.33;9.02;;;;;;;16.97;67.07;99760.97;5027513;28;20033;-25
2021/06/10 01:44:02;;;;;;;13.23;7.22;;;;;;;16.47;68.90;99758.72;5009878;28;20044;-24
2021/06/10 01:46:29;;;;;;;12.90;7.13;;;;;;;16.46;68.47;99729.34;5026173;28;20053;-24
2021/06/10 01:48:55;;;;;;;13.18;8.23;;;;;;;16.86;67.49;99755.56;5027442;28;20029;-25
2021/06/10 01:51:23;;;;;;;13.60;8.38;;;;;;;17.04;66.82;99746.16;5026423;28;20747;-24
2021/06/10 01:53:49;;;;;;;11.93;7.68;;;;;;;17.30;65.56;99750.72;5026099;28;20057;-24
2021/06/10 01:56:15;;;;;;;9.88;6.70;;;;;;;16.90;66.76;99738.88;5026288;28;20029;-24
2021/06/10 01:58:42;;;;;;;9.52;6.95;;;;;;;16.77;66.96;99748.25;5027413;28;20060;-23
2021/06/10 02:01:08;;;;;;;12.00;6.75;;;;;;;16.65;67.51;99740.41;5026209;28;20034;-24
2021/06/10 02:03:34;;;;;;;9.20;7.00;;;;;;;16.42;68.19;99734.47;5025940;28;20030;-24
2021/06/10 02:06:00;;;;;;;10.77;6.75;;;;;;;16.29;68.41;99739.56;5027333;28;20045;-24
2021/06/10 02:08:25;;;;;;;15.68;8.30;;;;;;;16.04;69.65;99738.41;5026899;28;20033;-24
2021/06/10 02:10:52;;;;;;;19.17;10.23;;;;;;;16.25;68.98;99744.66;5027110;28;20113;-23
2021/06/10 02:13:19;;;;;;;13.38;8.52;;;;;;;16.26;69.46;99760.53;5025797;28;20122;-24
2021/06/10 02:15:44;;;;;;;11.60;8.07;;;;;;;16.49;69.25;99761.16;5027024;28;20033;-24
2021/06/10 02:18:11;;;;;;;13.13;8.02;;;;;;;16.61;69.13;99755.50;5027015;28;20036;-23
2021/06/10 02:20:37;;;;;;;12.15;7.93;;;;;;;16.79;68.59;99759.56;5026064;28;20057;-24
2021/06/10 02:23:02;;;;;;;11.15;7.65;;;;;;;16.85;68.24;99753.94;5027064;28;20068;-24
2021/06/10 02:25:28;;;;;;;12.13;8.70;;;;;;;16.72;68.61;99753.66;5027039;28;20056;-24
2021/06/10 02:27:53;;;;;;;15.93;8.48;;;;;;;16.59;69.15;99760.34;5027062;28;20025;-24
2021/06/10 02:30:19;;;;;;;12.98;8.48;;;;;;;17.00;67.76;99757.72;5026916;28;20136;-24
2021/06/10 02:32:45;;;;;;;13.63;8.35;;;;;;;17.10;66.65;99728.13;5026930;28;20033;-24
2021/06/10 02:35:11;;;;;;;13.23;9.05;;;;;;;17.47;66.21;99762.84;5027429;28;20107;-24
2021/06/10 02:37:37;;;;;;;12.15;8.93;;;;;;;17.45;66.56;99761.50;5025932;28;20109;-24
2021/06/10 02:40:05;;;;;;;15.93;8.82;;;;;;;16.89;68.20;99735.38;5009331;28;20033;-24
2021/06/10 02:42:30;;;;;;;13.73;8.85;;;;;;;17.11;68.54;99762.06;5025498;28;20065;-24
2021/06/10 02:44:56;;;;;;;13.07;8.48;;;;;;;17.34;67.15;99767.97;5026824;28;20026;-25
2021/06/10 02:47:21;;;;;;;17.40;9.13;;;;;;;17.42;66.87;99772.81;5025861;28;20033;-24
2021/06/10 02:49:48;;;;;;;12.93;9.02;;;;;;;17.29;67.17;99749.13;5028720;28;20033;-24
2021/06/10 02:52:14;;;;;;;14.07;7.85;;;;;;;16.79;69.23;99759.56;5029138;28;20083;-24
2021/06/10 02:54:39;;;;;;;10.43;7.07;;;;;;;16.46;70.76;99762.47;5029284;28;20407;-24
2021/06/10 02:57:05;;;;;;;14.35;7.60;;;;;;;16.27;70.97;99761.34;5029416;28;20041;-24
2021/06/10 02:59:31;;;;;;;11.13;7.32;;;;;;;16.43;70.92;99768.38;5012522;28;20547;-24
2021/06/10 03:01:56;;;;;;;15.68;7.28;;;;;;;16.59;69.78;99777.31;5012565;28;20452;-24
2021/06/10 03:04:22;;;;;;;14.85;7.55;;;;;;;16.48;69.61;99760.31;5030048;28;20029;-24
2021/06/10 03:06:48;;;;;;;13.25;7.72;;;;;;;16.43;69.84;99779.16;5012677;28;20098;-24
2021/06/10 03:09:14;;;;;;;12.70;7.30;;;;;;;16.40;69.89;99766.22;5030304;28;20535;-24
2021/06/10 03:11:40;;;;;;;21.38;7.47;;;;;;;15.95;71.49;99754.19;5030140;28;20029;-24
2021/06/10 03:14:09;;;;;;;13.45;7.30;;;;;;;15.67;72.88;99766.94;5028791;28;20030;-24
2021/06/10 03:16:36;;;;;;;14.15;7.30;;;;;;;15.66;72.97;99776.06;5028626;28;20033;-24
2021/06/10 03:19:02;;;;;;;13.30;7.82;;;;;;;15.92;72.47;99772.75;5029097;28;20116;-24
2021/06/10 03:21:27;;;;;;;13.60;7.35;;;;;;;16.18;71.84;99781.75;5029092;28;20043;-24
2021/06/10 03:23:53;;;;;;;16.50;8.18;;;;;;;16.31;71.84;99781.25;5028751;28;20041;-24
2021/06/10 03:26:19;;;;;;;10.10;6.90;;;;;;;16.15;72.77;99763.44;5012338;28;20045;-25
2021/06/10 03:28:45;;;;;;;11.77;7.78;;;;;;;16.40;72.98;99784.25;5028895;28;20025;-24
2021/06/10 03:31:10;;;;;;;11.18;7.40;;;;;;;16.25;73.84;99785.00;5028548;28;20466;-24
2021/06/10 03:33:36;;;;;;;11.52;8.50;;;;;;;16.37;73.37;99779.41;5029783;28;20025;-24
2021/06/10 03:36:02;;;;;;;12.95;7.95;;;;;;;16.77;72.29;99777.88;5028662;28;20034;-24
2021/06/10 03:38:27;;;;;;;12.57;7.35;;;;;;;17.05;71.14;99779.28;5028590;28;20033;-24
2021/06/10 03:40:53;;;;;;;13.45;7.88;;;;;;;17.12;71.32;99779.03;5012175;28;20030;-24
2021/06/10 03:43:19;;;;;;;9.90;7.82;;;;;;;17.11;71.71;99780.91;5011835;28;20451;-24
2021/06/10 03:45:44;;;;;;;11.43;7.88;;;;;;;17.02;71.72;99769.03;5028214;28;20063;-24
2021/06/10 03:48:10;;;;;;;9.80;7.00;;;;;;;17.41;70.68;99782.00;5029456;28;20040;-24
2021/06/10 03:50:37;;;;;;;9.77;7.85;;;;;;;17.61;69.66;99776.56;5029905;28;20394;-24
2021/06/10 03:53:03;;;;;;;13.25;7.45;;;;;;;17.48;69.98;99771.72;5029331;28;20061;-24
2021/06/10 03:55:29;;;;;;;12.75;8.55;;;;;;;17.70;69.11;99779.53;5029405;28;20029;-24
2021/06/10 03:57:54;;;;;;;15.93;8.05;;;;;;;17.53;69.59;99784.38;5029298;28;20862;-24
2021/06/10 04:00:20;;;;;;;18.08;8.38;;;;;;;17.64;69.13;99786.00;5027613;28;20068;-24
2021/06/10 04:02:46;;;;;;;11.27;8.27;;;;;;;17.42;69.76;99783.59;5029375;28;20033;-23
2021/06/10 04:05:11;;;;;;;13.15;8.27;;;;;;;17.23;70.66;99788.72;5029182;28;20033;-24
2021/06/10 04:07:37;;;;;;;16.83;8.82;;;;;;;17.16;70.71;99780.09;5029294;28;20041;-24
2021/06/10 04:10:04;;;;;;;13.80;8.02;;;;;;;17.22;70.77;99782.53;5029080;28;20037;-24
2021/06/10 04:12:30;;;;;;;13.77;7.70;;;;;;;17.38;70.37;99780.63;5028691;28;20090;-23
2021/06/10 04:14:55;;;;;;;12.95;7.93;;;;;;;17.55;69.87;99768.75;5029168;28;20037;-24
2021/06/10 04:17:21;;;;;;;11.52;7.85;;;;;;;17.83;69.88;99786.25;5028994;28;20111;-23
2021/06/10 04:19:46;;;;;;;14.07;8.20;;;;;;;18.04;69.45;99787.81;5029157;28;20032;-25
2021/06/10 04:22:12;;;;;;;13.43;8.20;;;;;;;18.15;69.19;99780.50;5029087;28;20806;-24
2021/06/10 04:24:37;;;;;;;14.57;8.48;;;;;;;18.35;68.84;99778.78;5029575;28;20029;-24
2021/06/10 04:27:04;;;;;;;11.48;7.60;;;;;;;18.38;69.03;99789.84;5028803;28;20025;-23
2021/06/10 04:29:29;;;;;;;10.85;8.30;;;;;;;18.48;68.62;99797.06;5028854;28;20018;-24
2021/06/10 04:31:55;;;;;;;12.32;8.20;;;;;;;18.47;68.63;99792.78;5028805;28;20413;-24
2021/06/10 04:34:20;;;;;;;12.70;7.50;;;;;;;18.60;67.78;99794.84;5028533;28;20382;-24
2021/06/10 04:36:46;;;;;;;14.05;8.18;;;;;;;18.87;67.33;99799.84;5028752;28;20037;-24
2021/06/10 04:39:11;;;;;;;9.77;7.82;;;;;;;18.86;66.84;99795.53;5028554;28;20067;-24
2021/06/10 04:41:37;;;;;;;13.32;7.95;;;;;;;19.03;66.75;99795.16;5028327;28;20057;-24
2021/06/10 04:44:03;;;;;;;11.82;8.15;;;;;;;19.10;66.53;99796.72;5028441;28;20572;-24
2021/06/10 04:46:29;;;;;;;10.07;7.60;;;;;;;19.27;65.80;99783.63;5027113;28;20032;-24
2021/06/10 04:48:56;;;;;;;12.50;8.23;;;;;;;19.11;66.23;99790.25;5028653;28;20133;-24
2021/06/10 04:51:22;;;;;;;12.30;7.80;;;;;;;19.23;65.77;99786.06;5028389;28;20091;-24
2021/06/10 04:53:48;;;;;;;12.32;8.48;;;;;;;19.12;66.36;99789.94;5028143;28;20081;-24
2021/06/10 04:56:14;;;;;;;12.27;7.90;;;;;;;18.94;67.12;99796.03;5027932;28;20486;-24
2021/06/10 04:58:40;;;;;;;10.65;7.28;;;;;;;18.78;67.17;99782.59;5028215;28;20033;-24
2021/06/10 05:01:06;;;;;;;10.82;7.45;;;;;;;19.19;66.90;99782.31;5028146;28;20033;-24
2021/06/10 05:03:31;;;;;;;9.90;7.78;;;;;;;19.44;65.86;99777.78;5028277;28;20091;-24
2021/06/10 05:05:57;;;;;;;11.02;7.40;;;;;;;19.36;66.12;99775.69;5028481;28;20873;-24
2021/06/10 05:08:22;;;;;;;10.90;7.18;;;;;;;19.30;66.37;99766.81;5028052;28;20029;-26
2021/06/10 05:10:48;;;;;;;11.27;7.80;;;;;;;18.95;67.84;99776.81;5028021;28;20028;-26
2021/06/10 05:13:13;;;;;;;12.18;7.97;;;;;;;19.02;67.27;99771.09;5027308;28;20478;-26
2021/06/10 05:15:39;;;;;;;10.52;7.20;;;;;;;19.23;66.65;99764.44;5028027;28;20032;-26
2021/06/10 05:18:05;;;;;;;12.23;8.18;;;;;;;19.36;67.42;99768.38;5027931;28;20417;-26
2021/06/10 05:20:30;;;;;;;10.95;7.88;;;;;;;19.43;66.91;99771.56;5027689;28;20040;-26
2021/06/10 05:22:56;;;;;;;10.60;7.57;;;;;;;19.53;66.92;99776.06;5027907;28;20068;-26
2021/06/10 05:25:22;;;;;;;9.32;7.55;;;;;;;19.75;65.12;99789.13;5027868;28;20499;-26
2021/06/10 05:27:48;;;;;;;9.02;6.72;;;;;;;19.86;65.00;99795.25;5027868;28;20480;-26
2021/06/10 05:30:14;;;;;;;9.13;6.70;;;;;;;20.26;64.01;99787.75;5027704;28;20025;-26
2021/06/10 05:32:40;;;;;;;8.40;6.65;;;;;;;20.24;63.61;99782.63;5027604;28;20116;-27
2021/06/10 05:35:06;;;;;;;9.95;5.90;;;;;;;20.45;62.32;99771.50;5027572;28;20025;-26
2021/06/10 05:37:31;;;;;;;8.85;6.15;;;;;;;20.45;62.65;99780.47;5027509;28;20099;-27
2021/06/10 05:39:57;;;;;;;7.95;5.78;;;;;;;20.38;61.41;99785.44;5027474;28;20091;-26
2021/06/10 05:42:22;;;;;;;7.60;5.57;;;;;;;20.78;61.20;99787.88;5027315;28;20025;-27
2021/06/10 05:44:48;;;;;;;8.20;6.10;;;;;;;20.84;60.97;99789.41;5027856;28;20037;-26
2021/06/10 05:47:14;;;;;;;10.35;6.10;;;;;;;20.82;61.16;99784.31;5028148;28;20335;-26
2021/06/10 05:49:39;;;;;;;8.27;6.13;;;;;;;20.88;60.61;99787.72;5027682;28;20413;-26
2021/06/10 05:52:05;;;;;;;8.95;5.95;;;;;;;20.98;60.09;99782.16;5027119;28;20073;-26
2021/06/10 05:54:31;;;;;;;11.55;5.63;;;;;;;21.01;59.94;99781.56;5027208;28;20493;-26
2021/06/10 05:56:58;;;;;;;8.88;5.35;;;;;;;21.41;59.36;99784.72;5027279;28;20064;-26
2021/06/10 05:59:23;;;;;;;10.02;5.38;;;;;;;21.17;59.91;99784.06;5026152;28;20025;-26
2021/06/10 06:01:49;;;;;;;7.40;5.30;;;;;;;20.91;58.98;99764.66;5027502;28;20048;-26
2021/06/10 06:04:14;;;;;;;8.15;5.82;;;;;;;21.13;59.92;99780.31;5027127;28;20060;-26
2021/06/10 06:06:40;;;;;;;7.25;5.53;;;;;;;21.17;58.16;99784.06;5027269;28;20088;-26
2021/06/10 06:09:08;;;;;;;8.85;6.20;;;;;;;21.11;58.66;99769.78;5027267;28;20029;-26
2021/06/10 06:11:37;;;;;;;8.10;5.15;;;;;;;21.50;58.01;99775.94;5027142;28;20509;-26
2021/06/10 06:14:10;;;;;;;7.00;5.75;;;;;;;21.55;59.54;99790.19;5027251;28;20030;-26
2021/06/10 06:16:41;;;;;;;7.50;5.18;;;;;;;21.89;58.23;99788.25;5027325;28;20033;-26
2021/06/10 06:19:07;;;;;;;8.27;5.28;;;;;;;21.73;57.37;99774.16;5026431;28;20040;-26
2021/06/10 06:21:35;;;;;;;8.68;6.53;;;;;;;22.23;56.26;99788.66;5027489;28;20140;-26
2021/06/10 06:24:01;;;;;;;8.30;5.45;;;;;;;22.41;55.70;99789.66;5029494;28;20040;-28
2021/06/10 06:26:27;;;;;;;7.78;5.55;;;;;;;22.51;55.88;99787.81;5031380;28;20136;-26
2021/06/10 06:28:54;;;;;;;6.13;4.90;;;;;;;22.49;55.20;99785.38;5031824;28;20045;-26
2021/06/10 06:31:20;;;;;;;7.93;6.10;;;;;;;22.66;54.57;99796.44;5031313;28;20040;-26
2021/06/10 06:33:46;;;;;;;8.23;5.40;;;;;;;22.61;54.87;99787.59;5031200;28;20079;-26
2021/06/10 06:36:12;;;;;;;8.07;5.38;;;;;;;22.59;54.77;99785.16;5030629;28;20454;-26
2021/06/10 06:38:37;;;;;;;8.45;5.40;;;;;;;22.79;54.12;99789.34;5030746;28;20552;-26
2021/06/10 06:41:03;;;;;;;11.68;5.25;;;;;;;22.59;55.41;99800.66;5030781;28;20514;-26
2021/06/10 06:43:30;;;;;;;8.52;5.38;;;;;;;22.96;54.66;99804.19;5030728;28;20029;-26
2021/06/10 06:45:56;;;;;;;6.43;5.30;;;;;;;23.11;53.77;99800.31;5030501;28;20030;-27
2021/06/10 06:48:22;;;;;;;8.45;5.55;;;;;;;23.13;54.64;99808.97;5030461;28;20033;-26
2021/06/10 06:50:48;;;;;;;10.88;6.32;;;;;;;23.61;53.68;99813.78;5030354;28;20033;-26
2021/06/10 06:53:13;;;;;;;7.80;5.97;;;;;;;23.45;53.02;99797.03;5030419;28;20193;-26
2021/06/10 06:55:39;;;;;;;7.75;5.55;;;;;;;23.22;53.79;99807.13;5030497;28;20037;-26
2021/06/10 06:58:05;;;;;;;8.02;5.53;;;;;;;23.31;54.46;99799.03;5030424;28;20053;-27
2021/06/10 07:00:30;;;;;;;10.30;7.18;;;;;;;23.24;55.00;99783.94;5030353;28;20029;-26
2021/06/10 07:02:56;;;;;;;12.65;7.18;;;;;;;23.67;54.14;99796.97;5030333;28;20040;-26
2021/06/10 07:05:21;;;;;;;9.88;6.13;;;;;;;23.49;53.08;99811.63;5030381;28;20060;-27
2021/06/10 07:07:47;;;;;;;10.10;6.45;;;;;;;23.27;53.79;99813.25;5030459;28;20057;-27
2021/06/10 07:10:13;;;;;;;9.63;6.47;;;;;;;23.60;52.43;99812.97;5030760;28;20025;-26
2021/06/10 07:12:38;;;;;;;11.32;7.10;;;;;;;23.79;53.15;99814.69;5030403;28;20036;-26
2021/06/10 07:15:04;;;;;;;7.65;5.40;;;;;;;23.49;52.90;99811.63;5029110;28;20034;-26
2021/06/10 07:17:30;;;;;;;9.35;6.80;;;;;;;23.99;52.59;99814.13;5030354;28;20533;-26
2021/06/10 07:20:00;;;;;;;8.48;5.72;;;;;;;24.14;51.98;99803.94;5030014;28;20064;-26
2021/06/10 07:22:29;;;;;;;8.65;6.28;;;;;;;24.41;51.55;99822.75;5030084;28;20901;-27
2021/06/10 07:24:55;;;;;;;7.13;5.22;;;;;;;24.44;51.80;99792.13;5030348;28;20040;-27
2021/06/10 07:27:20;;;;;;;6.82;5.28;;;;;;;24.66;50.71;99817.69;5029121;28;20029;-26
2021/06/10 07:29:46;;;;;;;7.80;5.20;;;;;;;24.03;50.15;99814.31;5030138;28;20025;-26
2021/06/10 07:32:12;;;;;;;10.10;5.82;;;;;;;23.72;51.73;99825.19;5029742;28;20029;-26
2021/06/10 07:34:38;;;;;;;8.50;5.22;;;;;;;23.62;50.87;99816.19;5029469;28;20512;-26
2021/06/10 07:37:06;;;;;;;7.22;6.00;;;;;;;23.66;52.82;99822.63;5029673;28;20116;-26
2021/06/10 07:39:32;;;;;;;9.05;5.35;;;;;;;23.66;53.40;99828.06;5029776;28;20025;-26
2021/06/10 07:41:58;;;;;;;6.57;5.40;;;;;;;23.69;51.72;99831.28;5029740;28;20073;-26
2021/06/10 07:44:24;;;;;;;7.85;5.60;;;;;;;23.94;52.59;99832.53;5029417;28;20029;-26
2021/06/10 07:46:50;;;;;;;10.07;5.70;;;;;;;24.51;51.51;99829.06;5029782;28;20065;-26
2021/06/10 07:49:15;;;;;;;8.73;5.63;;;;;;;24.99;50.40;99839.06;5029725;28;20032;-26
2021/06/10 07:51:41;;;;;;;6.32;5.07;;;;;;;25.38;49.19;99834.56;5029746;28;20042;-26
2021/06/10 07:54:06;;;;;;;7.30;5.13;;;;;;;25.60;48.38;99841.72;5029588;28;20049;-25
2021/06/10 07:56:32;;;;;;;7.90;5.60;;;;;;;25.35;49.36;99840.66;5029596;28;20029;-26
2021/06/10 07:58:57;;;;;;;12.70;5.07;;;;;;;25.26;49.05;99844.19;5029849;28;20041;-26
2021/06/10 08:01:23;;;;;;;6.75;4.45;;;;;;;25.76;45.94;99837.34;5029485;28;20026;-26
2021/06/10 08:03:48;;;;;;;6.85;4.55;;;;;;;25.51;47.40;99839.03;5029364;28;20033;-26
2021/06/10 08:06:14;;;;;;;5.65;4.20;;;;;;;25.67;47.13;99842.84;5029776;28;20033;-26
2021/06/10 08:08:39;;;;;;;6.40;4.20;;;;;;;25.89;46.03;99838.28;5030061;28;20042;-27
2021/06/10 08:11:10;;;;;;;5.65;4.63;;;;;;;26.22;45.35;99841.22;5029530;28;20084;-23
2021/06/10 08:13:36;;;;;;;4.85;3.40;;;;;;;26.78;43.25;99838.31;5029226;28;20030;-24
2021/06/10 08:16:01;;;;;;;8.23;3.80;;;;;;;26.95;41.95;99833.84;5029167;28;20095;-24
2021/06/10 08:18:28;;;;;;;5.70;4.20;;;;;;;26.68;43.97;99825.03;5029172;28;20067;-24
2021/06/10 08:20:57;;;;;;;6.90;3.70;;;;;;;27.58;41.91;99842.81;5029480;28;20026;-23
2021/06/10 08:23:23;;;;;;;6.20;3.58;;;;;;;27.13;41.13;99829.81;5029065;28;20040;-24
2021/06/10 08:25:49;;;;;;;5.22;3.30;;;;;;;27.46;40.30;99823.56;5029557;28;20033;-24
2021/06/10 08:28:15;;;;;;;5.63;3.72;;;;;;;27.72;39.65;99834.25;5029193;28;20138;-23
2021/06/10 08:30:40;;;;;;;4.78;3.22;;;;;;;27.29;40.06;99832.75;5029075;28;20359;-23
2021/06/10 08:33:06;;;;;;;5.32;3.10;;;;;;;26.82;40.34;99830.25;5029166;28;20108;-23
2021/06/10 08:35:32;;;;;;;6.45;3.50;;;;;;;27.05;41.27;99833.44;5029023;28;20383;-23
2021/06/10 08:38:00;;;;;;;4.50;3.17;;;;;;;27.71;40.29;99834.59;5028774;28;20044;-23
2021/06/10 08:40:25;;;;;;;8.70;2.95;;;;;;;27.25;39.83;99832.63;5028494;28;20079;-23
2021/06/10 08:42:51;;;;;;;4.68;3.17;;;;;;;26.91;39.79;99830.16;5028644;28;20034;-23
2021/06/10 08:45:18;;;;;;;5.55;3.20;;;;;;;27.55;39.99;99834.44;5028541;28;20087;-23
2021/06/10 08:47:45;;;;;;;5.53;3.25;;;;;;;27.97;38.88;99818.69;5027544;28;20033;-23
2021/06/10 08:50:13;;;;;;;22.23;4.30;;;;;;;28.40;37.50;99825.53;5028225;28;20037;-25
2021/06/10 08:52:39;;;;;;;5.65;3.03;;;;;;;28.50;37.09;99812.50;5028284;28;20053;-26
2021/06/10 08:55:06;;;;;;;6.13;3.08;;;;;;;28.05;37.47;99831.47;5028546;28;20563;-23
2021/06/10 08:57:32;;;;;;;4.38;3.30;;;;;;;28.05;38.55;99820.50;5028630;28;20021;-23
2021/06/10 08:59:57;;;;;;;3.83;3.17;;;;;;;28.62;36.82;99815.22;5028217;28;20112;-23
2021/06/10 09:02:23;;;;;;;4.22;2.90;;;;;;;28.39;37.38;99831.34;5027976;28;20040;-23
2021/06/10 09:04:48;;;;;;;6.22;3.50;;;;;;;28.58;38.32;99814.31;5028552;28;20041;-23
2021/06/10 09:07:14;;;;;;;6.50;3.30;;;;;;;28.24;37.93;99832.84;5028203;28;20692;-24
2021/06/10 09:09:41;;;;;;;7.15;3.22;;;;;;;28.04;37.02;99834.56;5028467;28;20480;-23
2021/06/10 09:12:11;;;;;;;5.88;3.38;;;;;;;28.43;37.95;99827.56;5028013;28;20418;-24
2021/06/10 09:14:57;;;;;;;5.75;3.28;;;;;;;28.66;37.53;99827.09;5027991;28;20071;-23
2021/06/10 09:17:33;;;;;;;23.27;4.05;;;;;;;28.98;36.19;99817.03;5028013;28;20067;-23
2021/06/10 09:19:59;;;;;;;71.07;9.80;;;;;;;29.31;36.17;99812.47;5028127;28;20040;-23
2021/06/10 09:22:28;;;;;;;16.73;4.65;;;;;;;29.28;36.13;99813.97;5027686;28;20033;-23
2021/06/10 09:25:07;;;;;;;95.07;8.95;;;;;;;29.21;36.75;99820.06;5028064;28;20034;-23
2021/06/10 09:27:33;;;;;;;12.38;3.30;;;;;;;28.98;36.58;99805.28;5028020;28;20505;-23
2021/06/10 09:30:00;;;;;;;4.05;2.88;;;;;;;28.90;36.01;99819.94;5028072;28;20056;-23
2021/06/10 09:32:27;;;;;;;4.90;3.20;;;;;;;28.84;37.42;99817.44;5027701;28;20057;-23
2021/06/10 09:34:55;;;;;;;;;;;;;;;28.91;37.72;99821.53;5028178;28;20021;-23
2021/06/10 09:37:30;;;;;;;5.47;3.13;;;;;;;28.91;37.12;99813.28;5027587;28;19964;-23
2021/06/10 09:39:56;;;;;;;4.80;2.97;;;;;;;29.20;38.10;99810.25;5027503;28;20116;-23
2021/06/10 09:42:35;;;;;;;5.10;2.97;;;;;;;29.83;34.95;99816.97;5026402;28;20116;-23
2021/06/10 09:45:04;;;;;;;5.07;3.13;;;;;;;29.60;36.93;99805.78;5027788;28;20029;-23
2021/06/10 09:47:40;;;;;;;5.03;3.20;;;;;;;29.86;33.73;99794.28;5027694;28;20033;-23
2021/06/10 09:50:21;;;;;;;5.20;2.85;;;;;;;29.31;33.98;99813.25;5027460;28;20034;-23
2021/06/10 09:53:16;;;;;;;4.07;3.03;;;;;;;29.42;35.88;99786.06;5027621;28;20151;-23
2021/06/10 09:56:00;;;;;;;7.28;3.10;;;;;;;29.88;33.67;99807.69;5027562;28;20086;-23
2021/06/10 09:58:35;;;;;;;3.47;2.45;;;;;;;29.76;32.41;99792.06;5026805;28;20036;-23
2021/06/10 10:01:17;;;;;;;9.00;3.38;;;;;;;29.41;34.93;99790.00;5027881;28;20026;-24
2021/06/10 10:03:45;;;;;;;9.55;3.40;;;;;;;29.48;36.10;99798.41;5027502;28;20076;-23
2021/06/10 10:06:20;;;;;;;6.28;2.85;;;;;;;29.61;35.58;99788.94;5027186;28;20018;-24
2021/06/10 10:08:53;;;;;;;4.80;3.13;;;;;;;29.54;35.54;99788.75;5027505;28;20056;-23
2021/06/10 10:11:20;;;;;;;2.97;2.40;;;;;;;29.57;34.23;99785.31;5027610;28;20064;-24
2021/06/10 10:13:48;;;;;;;5.97;3.08;;;;;;;30.13;34.63;99780.78;5027568;28;20065;-23
2021/06/10 10:16:14;;;;;;;11.13;3.30;;;;;;;29.91;34.91;99785.75;5027227;28;20029;-23
2021/06/10 10:18:42;;;;;;;2.95;2.17;;;;;;;29.67;34.21;99791.41;5027415;28;20041;-23
2021/06/10 10:21:07;;;;;;;;;;;;;;;30.05;30.83;99775.09;5026504;28;20478;-23
2021/06/10 10:23:33;;;;;;;7.60;2.85;;;;;;;30.38;34.56;99776.66;5027125;28;19920;-23
2021/06/10 10:26:00;;;;;;;6.45;2.80;;;;;;;31.06;33.20;99774.53;5027437;28;20029;-23
2021/06/10 10:28:27;;;;;;;5.20;2.33;;;;;;;31.14;32.93;99768.00;5027243;28;20028;-23
2021/06/10 10:30:53;;;;;;;3.95;1.98;;;;;;;30.96;30.35;99755.84;5009706;28;20094;-23
2021/06/10 10:33:19;;;;;;;4.63;2.30;;;;;;;30.84;30.86;99754.81;5027310;28;20033;-23
2021/06/10 10:35:52;;;;;;;2.92;2.20;;;;;;;31.03;29.91;99761.47;5027159;28;20030;-23
2021/06/10 10:38:20;;;;;;;3.72;2.10;;;;;;;31.52;29.25;99749.78;5027223;28;20033;-23
2021/06/10 10:40:57;;;;;;;4.38;2.30;;;;;;;31.54;28.89;99744.69;5027329;28;20452;-23
2021/06/10 10:43:23;;;;;;;2.47;2.03;;;;;;;31.60;26.86;99751.50;5027309;28;20025;-26
2021/06/10 10:45:51;;;;;;;2.97;2.05;;;;;;;31.23;26.62;99743.75;5009690;28;20064;-24
2021/06/10 10:48:31;;;;;;;5.25;2.40;;;;;;;31.34;27.18;99757.69;5026951;28;20505;-26
2021/06/10 10:50:57;;;;;;;4.78;2.10;;;;;;;31.40;29.17;99759.00;5026968;28;20083;-23
2021/06/10 10:53:23;;;;;;;2.88;1.85;;;;;;;31.39;26.35;99754.66;5025597;28;20053;-23
2021/06/10 10:56:08;;;;;;;2.90;2.17;;;;;;;31.75;27.38;99757.22;5025783;28;20033;-23
2021/06/10 10:58:35;;;;;;;2.97;2.20;;;;;;;31.70;26.55;99749.28;5025544;28;20034;-23
2021/06/10 11:01:02;;;;;;;3.05;2.03;;;;;;;32.27;26.92;99730.06;5025743;28;20033;-23
2021/06/10 11:03:41;;;;;;;2.53;2.05;;;;;;;32.17;26.65;99729.53;5027093;28;20026;-23
2021/06/10 11:06:24;;;;;;;3.40;1.70;;;;;;;32.76;25.14;99749.22;5026981;28;20034;-23
2021/06/10 11:09:25;;;;;;;2.30;1.85;;;;;;;32.82;24.31;99725.63;5026940;28;20042;-23
2021/06/10 11:11:54;;;;;;;3.13;2.10;;;;;;;32.16;27.03;99743.69;5030070;28;20196;-23
2021/06/10 11:14:53;;;;;;;3.90;2.10;;;;;;;32.24;29.25;99739.84;5030435;28;20044;-23
2021/06/10 11:17:26;;;;;;;2.92;2.30;;;;;;;31.49;30.18;99731.25;5029756;28;20450;-23
2021/06/10 11:19:53;;;;;;;4.10;2.50;;;;;;;30.59;31.44;99728.75;5030043;28;20029;-23
2021/06/10 11:22:45;;;;;;;;;;;;;;;30.16;33.19;99730.53;5030472;28;20414;-23
2021/06/10 11:25:15;;;;;;;4.72;2.42;;;;;;;29.79;34.17;99717.13;5030783;28;19967;-23
2021/06/10 11:27:45;;;;;;;4.05;2.30;;;;;;;29.63;34.36;99715.19;5030188;28;20045;-23
2021/06/10 11:30:13;;;;;;;4.07;2.33;;;;;;;29.35;35.10;99714.50;5029946;28;20119;-23
2021/06/10 11:33:01;;;;;;;4.68;2.40;;;;;;;29.21;35.18;99715.72;5030405;28;20041;-25